createdAt,value
2017-09-02T00:00:45.074Z,100.0
2017-09-02T00:01:45.728Z,100.0
2017-09-02T00:02:46.381Z,100.0
2017-09-02T00:03:47.036Z,100.0
2017-09-02T00:04:47.690Z,100.0
2017-09-02T00:05:48.596Z,100.0
2017-09-02T00:06:49.249Z,100.0
2017-09-02T00:07:49.903Z,100.0
2017-09-02T00:08:50.557Z,100.0
2017-09-02T00:09:51.213Z,100.0
2017-09-02T00:10:52.167Z,100.0
2017-09-02T00:11:52.822Z,100.0
2017-09-02T00:12:53.475Z,100.0
2017-09-02T00:13:54.130Z,100.0
2017-09-02T00:14:54.819Z,100.0
2017-09-02T00:15:55.782Z,100.0
2017-09-02T00:16:56.513Z,100.0
2017-09-02T00:17:57.166Z,100.0
2017-09-02T00:18:57.819Z,100.0
2017-09-02T00:19:58.474Z,100.0
2017-09-02T00:20:59.430Z,100.0
2017-09-02T00:22:00.084Z,100.0
2017-09-02T00:23:00.739Z,100.0
2017-09-02T00:24:01.391Z,100.0
2017-09-02T00:25:02.047Z,100.0
2017-09-02T00:26:02.953Z,100.0
2017-09-02T00:27:03.609Z,100.0
2017-09-02T00:28:04.264Z,100.0
2017-09-02T00:29:04.915Z,100.0
2017-09-02T00:30:05.571Z,100.0
2017-09-02T00:31:06.473Z,100.0
2017-09-02T00:32:07.129Z,100.0
2017-09-02T00:33:07.782Z,100.0
2017-09-02T00:34:08.437Z,100.0
2017-09-02T00:35:09.091Z,100.0
2017-09-02T00:36:10.045Z,100.0
2017-09-02T00:37:10.697Z,100.0
2017-09-02T00:38:11.351Z,100.0
2017-09-02T00:39:12.006Z,100.0
2017-09-02T00:40:12.659Z,100.0
2017-09-02T00:41:13.563Z,100.0
2017-09-02T00:42:14.217Z,100.0
2017-09-02T00:43:14.872Z,100.0
2017-09-02T00:44:15.525Z,100.0
2017-09-02T00:45:16.178Z,100.0
2017-09-02T00:46:17.087Z,100.0
2017-09-02T00:47:17.741Z,100.0
2017-09-02T00:48:18.393Z,100.0
2017-09-02T00:49:19.046Z,100.0
2017-09-02T00:50:19.702Z,100.0
2017-09-02T00:51:20.614Z,100.0
2017-09-02T00:52:21.255Z,100.0
2017-09-02T00:53:21.909Z,100.0
2017-09-02T00:54:22.561Z,100.0
2017-09-02T00:55:23.214Z,100.0
2017-09-02T00:56:24.168Z,100.0
2017-09-02T00:57:24.820Z,100.0
2017-09-02T00:58:25.481Z,100.0
2017-09-02T00:59:26.135Z,100.0
2017-09-02T01:00:26.793Z,100.0
2017-09-02T01:01:27.739Z,100.0
2017-09-02T01:02:28.392Z,100.0
2017-09-02T01:03:29.043Z,100.0
2017-09-02T01:04:29.697Z,100.0
2017-09-02T01:05:30.350Z,100.0
2017-09-02T01:06:31.252Z,100.0
2017-09-02T01:07:31.907Z,100.0
2017-09-02T01:08:32.561Z,100.0
2017-09-02T01:09:33.215Z,100.0
2017-09-02T01:10:33.866Z,100.0
2017-09-02T01:11:34.770Z,100.0
2017-09-02T01:12:35.422Z,100.0
2017-09-02T01:13:36.074Z,100.0
2017-09-02T01:14:36.727Z,100.0
2017-09-02T01:15:37.378Z,100.0
2017-09-02T01:16:38.281Z,100.0
2017-09-02T01:17:38.934Z,100.0
2017-09-02T01:18:39.587Z,100.0
2017-09-02T01:19:40.240Z,100.0
2017-09-02T01:20:40.928Z,100.0
2017-09-02T01:21:41.831Z,100.0
2017-09-02T01:22:42.484Z,100.0
2017-09-02T01:23:43.136Z,100.0
2017-09-02T01:24:43.788Z,100.0
2017-09-02T01:25:44.440Z,100.0
2017-09-02T01:26:45.344Z,100.0
2017-09-02T01:27:45.996Z,100.0
2017-09-02T01:28:46.650Z,100.0
2017-09-02T01:29:47.303Z,100.0
2017-09-02T01:30:47.955Z,100.0
2017-09-02T01:31:48.857Z,100.0
2017-09-02T01:32:49.512Z,100.0
2017-09-02T01:33:50.165Z,100.0
2017-09-02T01:34:50.818Z,100.0
2017-09-02T01:35:51.472Z,100.0
2017-09-02T01:36:52.373Z,100.0
2017-09-02T01:37:53.027Z,100.0
2017-09-02T01:38:53.679Z,100.0
2017-09-02T01:39:54.331Z,100.0
2017-09-02T01:40:54.983Z,100.0
2017-09-02T01:41:55.885Z,100.0
2017-09-02T01:42:56.537Z,100.0
2017-09-02T01:43:57.194Z,100.0
2017-09-02T01:44:57.842Z,100.0
2017-09-02T01:45:58.496Z,100.0
2017-09-02T01:46:59.400Z,100.0
2017-09-02T01:48:00.053Z,100.0
2017-09-02T01:49:00.706Z,100.0
2017-09-02T01:50:01.358Z,100.0
2017-09-02T01:51:02.011Z,100.0
2017-09-02T01:52:02.965Z,100.0
2017-09-02T01:53:03.618Z,100.0
2017-09-02T01:54:04.270Z,100.0
2017-09-02T01:55:04.921Z,100.0
2017-09-02T01:56:05.575Z,100.0
2017-09-02T01:57:06.477Z,100.0
2017-09-02T01:58:07.130Z,100.0
2017-09-02T01:59:07.784Z,100.0
2017-09-02T02:00:08.436Z,100.0
2017-09-02T02:01:09.089Z,100.0
2017-09-02T02:02:10.003Z,100.0
2017-09-02T02:03:10.682Z,100.0
2017-09-02T02:04:11.368Z,100.0
2017-09-02T02:05:12.020Z,100.0
2017-09-02T02:06:12.673Z,100.0
2017-09-02T02:07:13.576Z,100.0
2017-09-02T02:08:14.272Z,100.0
2017-09-02T02:09:14.916Z,100.0
2017-09-02T02:10:15.571Z,100.0
2017-09-02T02:11:16.224Z,100.0
2017-09-02T02:12:17.176Z,100.0
2017-09-02T02:13:17.828Z,100.0
2017-09-02T02:14:18.482Z,100.0
2017-09-02T02:15:19.134Z,100.0
2017-09-02T02:16:19.787Z,100.0
2017-09-02T02:17:20.741Z,100.0
2017-09-02T02:18:21.394Z,100.0
2017-09-02T02:19:22.056Z,100.0
2017-09-02T02:20:22.709Z,100.0
2017-09-02T02:21:23.360Z,100.0
2017-09-02T02:22:24.264Z,100.0
2017-09-02T02:23:24.917Z,100.0
2017-09-02T02:24:25.568Z,100.0
2017-09-02T02:25:26.222Z,100.0
2017-09-02T02:26:26.874Z,100.0
2017-09-02T02:27:27.826Z,100.0
2017-09-02T02:28:28.480Z,100.0
2017-09-02T02:29:29.131Z,100.0
2017-09-02T02:30:29.786Z,100.0
2017-09-02T02:31:30.436Z,100.0
2017-09-02T02:32:31.388Z,100.0
2017-09-02T02:33:32.039Z,100.0
2017-09-02T02:34:32.691Z,100.0
2017-09-02T02:35:33.345Z,100.0
2017-09-02T02:36:33.998Z,100.0
2017-09-02T02:37:34.903Z,100.0
2017-09-02T02:38:35.555Z,100.0
2017-09-02T02:39:36.209Z,100.0
2017-09-02T02:40:36.862Z,100.0
2017-09-02T02:41:37.514Z,100.0
2017-09-02T02:42:38.418Z,100.0
2017-09-02T02:43:39.072Z,100.0
2017-09-02T02:44:39.723Z,100.0
2017-09-02T02:45:40.378Z,100.0
2017-09-02T02:46:41.029Z,100.0
2017-09-02T02:47:41.986Z,100.0
2017-09-02T02:48:42.634Z,100.0
2017-09-02T02:49:43.285Z,100.0
2017-09-02T02:50:43.938Z,100.0
2017-09-02T02:51:44.589Z,100.0
2017-09-02T02:52:45.543Z,100.0
2017-09-02T02:53:46.196Z,100.0
2017-09-02T02:54:46.848Z,100.0
2017-09-02T02:55:47.501Z,100.0
2017-09-02T02:56:48.154Z,100.0
2017-09-02T02:57:49.074Z,100.0
2017-09-02T02:58:49.728Z,100.0
2017-09-02T02:59:50.379Z,100.0
2017-09-02T03:00:51.032Z,100.0
2017-09-02T03:01:51.721Z,100.0
2017-09-02T03:02:52.672Z,100.0
2017-09-02T03:03:53.326Z,100.0
2017-09-02T03:04:53.977Z,100.0
2017-09-02T03:05:54.629Z,100.0
2017-09-02T03:06:55.283Z,100.0
2017-09-02T03:07:56.183Z,100.0
2017-09-02T03:08:56.835Z,100.0
2017-09-02T03:09:57.490Z,100.0
2017-09-02T03:10:58.144Z,100.0
2017-09-02T03:11:58.794Z,100.0
2017-09-02T03:12:59.696Z,100.0
2017-09-02T03:14:00.348Z,100.0
2017-09-02T03:15:01.000Z,100.0
2017-09-02T03:16:01.652Z,100.0
2017-09-02T03:17:02.307Z,100.0
2017-09-02T03:18:03.257Z,100.0
2017-09-02T03:19:03.909Z,100.0
2017-09-02T03:20:04.566Z,100.0
2017-09-02T03:21:05.217Z,100.0
2017-09-02T03:22:05.869Z,100.0
2017-09-02T03:23:06.771Z,100.0
2017-09-02T03:24:07.421Z,100.0
2017-09-02T03:25:08.079Z,100.0
2017-09-02T03:26:08.728Z,100.0
2017-09-02T03:27:09.381Z,100.0
2017-09-02T03:28:10.282Z,100.0
2017-09-02T03:29:10.936Z,100.0
2017-09-02T03:30:11.590Z,100.0
2017-09-02T03:31:12.241Z,100.0
2017-09-02T03:32:12.894Z,100.0
2017-09-02T03:33:13.848Z,100.0
2017-09-02T03:34:14.499Z,100.0
2017-09-02T03:35:15.154Z,100.0
2017-09-02T03:36:15.803Z,100.0
2017-09-02T03:37:16.456Z,100.0
2017-09-02T03:38:17.360Z,100.0
2017-09-02T03:39:18.023Z,100.0
2017-09-02T03:40:18.674Z,100.0
2017-09-02T03:41:19.327Z,100.0
2017-09-02T03:42:19.980Z,100.0
2017-09-02T03:43:20.933Z,100.0
2017-09-02T03:44:21.587Z,100.0
2017-09-02T03:45:22.240Z,100.0
2017-09-02T03:46:22.892Z,100.0
2017-09-02T03:47:23.546Z,100.0
2017-09-02T03:48:24.502Z,100.0
2017-09-02T03:49:25.151Z,100.0
2017-09-02T03:50:25.805Z,100.0
2017-09-02T03:51:26.456Z,100.0
2017-09-02T03:52:27.109Z,100.0
2017-09-02T03:53:28.060Z,100.0
2017-09-02T03:54:28.713Z,100.0
2017-09-02T03:55:29.366Z,100.0
2017-09-02T03:56:30.018Z,100.0
2017-09-02T03:57:30.670Z,100.0
2017-09-02T03:58:31.574Z,100.0
2017-09-02T03:59:32.225Z,100.0
2017-09-02T04:00:32.877Z,100.0
2017-09-02T04:01:33.529Z,100.0
2017-09-02T04:02:34.182Z,100.0
2017-09-02T04:03:35.134Z,100.0
2017-09-02T04:04:35.787Z,100.0
2017-09-02T04:05:36.439Z,100.0
2017-09-02T04:06:37.091Z,100.0
2017-09-02T04:07:37.744Z,100.0
2017-09-02T04:08:38.646Z,100.0
2017-09-02T04:09:39.297Z,100.0
2017-09-02T04:10:39.951Z,100.0
2017-09-02T04:11:40.604Z,100.0
2017-09-02T04:12:41.258Z,100.0
2017-09-02T04:13:42.161Z,100.0
2017-09-02T04:14:42.814Z,100.0
2017-09-02T04:15:43.469Z,100.0
2017-09-02T04:16:44.121Z,100.0
2017-09-02T04:17:44.775Z,100.0
2017-09-02T04:18:45.678Z,100.0
2017-09-02T04:19:46.330Z,100.0
2017-09-02T04:20:46.983Z,100.0
2017-09-02T04:21:47.636Z,100.0
2017-09-02T04:22:48.292Z,100.0
2017-09-02T04:23:49.194Z,100.0
2017-09-02T04:24:49.848Z,100.0
2017-09-02T04:25:50.503Z,100.0
2017-09-02T04:26:51.155Z,100.0
2017-09-02T04:27:51.809Z,100.0
2017-09-02T04:28:52.712Z,100.0
2017-09-02T04:29:53.368Z,100.0
2017-09-02T04:30:54.022Z,100.0
2017-09-02T04:31:54.676Z,100.0
2017-09-02T04:32:55.331Z,100.0
2017-09-02T04:33:56.236Z,100.0
2017-09-02T04:34:56.890Z,100.0
2017-09-02T04:35:57.545Z,100.0
2017-09-02T04:36:58.199Z,100.0
2017-09-02T04:37:58.854Z,100.0
2017-09-02T04:38:59.757Z,100.0
2017-09-02T04:40:00.411Z,100.0
2017-09-02T04:41:01.068Z,100.0
2017-09-02T04:42:01.724Z,100.0
2017-09-02T04:43:02.377Z,100.0
2017-09-02T04:44:03.332Z,100.0
2017-09-02T04:45:03.989Z,100.0
2017-09-02T04:46:04.645Z,100.0
2017-09-02T04:47:05.300Z,100.0
2017-09-02T04:48:05.955Z,100.0
2017-09-02T04:49:06.911Z,100.0
2017-09-02T04:50:07.568Z,100.0
2017-09-02T04:51:08.224Z,100.0
2017-09-02T04:52:08.878Z,100.0
2017-09-02T04:53:09.535Z,100.0
2017-09-02T04:54:10.441Z,100.0
2017-09-02T04:55:11.097Z,100.0
2017-09-02T04:56:11.752Z,100.0
2017-09-02T04:57:12.409Z,100.0
2017-09-02T04:58:13.065Z,100.0
2017-09-02T04:59:13.973Z,100.0
2017-09-02T05:00:14.630Z,100.0
2017-09-02T05:01:15.286Z,100.0
2017-09-02T05:02:15.963Z,100.0
2017-09-02T05:03:16.619Z,100.0
2017-09-02T05:04:17.577Z,100.0
2017-09-02T05:05:18.233Z,100.0
2017-09-02T05:06:18.891Z,100.0
2017-09-02T05:07:19.549Z,100.0
2017-09-02T05:08:20.206Z,100.0
2017-09-02T05:09:21.168Z,100.0
2017-09-02T05:10:21.853Z,100.0
2017-09-02T05:11:22.515Z,100.0
2017-09-02T05:12:23.168Z,100.0
2017-09-02T05:13:23.829Z,100.0
2017-09-02T05:14:24.732Z,100.0
2017-09-02T05:15:25.387Z,100.0
2017-09-02T05:16:26.046Z,100.0
2017-09-02T05:17:26.702Z,100.0
2017-09-02T05:18:27.361Z,100.0
2017-09-02T05:19:28.350Z,100.0
2017-09-02T05:20:29.012Z,100.0
2017-09-02T05:21:29.703Z,100.0
2017-09-02T05:22:30.359Z,100.0
2017-09-02T05:23:31.017Z,100.0
2017-09-02T05:24:31.924Z,100.0
2017-09-02T05:25:32.582Z,100.0
2017-09-02T05:26:33.239Z,100.0
2017-09-02T05:27:33.896Z,100.0
2017-09-02T05:28:34.553Z,100.0
2017-09-02T05:29:35.512Z,100.0
2017-09-02T05:30:36.170Z,100.0
2017-09-02T05:31:36.860Z,100.0
2017-09-02T05:32:37.517Z,100.0
2017-09-02T05:33:38.174Z,100.0
2017-09-02T05:34:39.139Z,100.0
2017-09-02T05:35:39.792Z,100.0
2017-09-02T05:36:40.447Z,99.9
2017-09-02T05:37:41.102Z,99.9
2017-09-02T05:38:41.760Z,100.0
2017-09-02T05:39:42.717Z,100.0
2017-09-02T05:40:43.377Z,100.0
2017-09-02T05:41:44.037Z,100.0
2017-09-02T05:42:44.694Z,100.0
2017-09-02T05:43:45.351Z,100.0
2017-09-02T05:44:46.259Z,100.0
2017-09-02T05:45:46.919Z,100.0
2017-09-02T05:46:47.578Z,100.0
2017-09-02T05:47:48.236Z,100.0
2017-09-02T05:48:48.891Z,97.5
2017-09-02T05:49:49.851Z,94.6
2017-09-02T05:50:50.544Z,94.0
2017-09-02T05:51:51.202Z,93.9
2017-09-02T05:52:51.859Z,94.0
2017-09-02T05:53:52.516Z,94.1
2017-09-02T05:54:53.423Z,94.5
2017-09-02T05:55:54.083Z,94.6
2017-09-02T05:56:54.741Z,94.8
2017-09-02T05:57:55.398Z,94.5
2017-09-02T05:58:56.056Z,94.6
2017-09-02T05:59:57.013Z,94.5
2017-09-02T06:00:57.673Z,94.6
2017-09-02T06:01:58.332Z,94.5
2017-09-02T06:02:58.989Z,94.9
2017-09-02T06:03:59.653Z,95.6
2017-09-02T06:05:00.642Z,95.3
2017-09-02T06:06:01.301Z,95.5
2017-09-02T06:07:01.964Z,95.1
2017-09-02T06:08:02.621Z,95.7
2017-09-02T06:09:03.284Z,95.5
2017-09-02T06:10:04.246Z,95.4
2017-09-02T06:11:04.897Z,95.5
2017-09-02T06:12:05.555Z,95.7
2017-09-02T06:13:06.214Z,95.7
2017-09-02T06:14:06.871Z,95.7
2017-09-02T06:15:07.779Z,95.5
2017-09-02T06:16:08.437Z,95.6
2017-09-02T06:17:09.130Z,95.5
2017-09-02T06:18:09.786Z,95.5
2017-09-02T06:19:10.445Z,95.6
2017-09-02T06:20:11.352Z,95.1
2017-09-02T06:21:12.009Z,95.5
2017-09-02T06:22:12.666Z,95.4
2017-09-02T06:23:13.325Z,95.0
2017-09-02T06:24:13.982Z,95.2
2017-09-02T06:25:14.895Z,95.0
2017-09-02T06:26:15.547Z,95.4
2017-09-02T06:27:16.205Z,95.6
2017-09-02T06:28:16.866Z,95.6
2017-09-02T06:29:17.563Z,95.4
2017-09-02T06:30:18.506Z,95.3
2017-09-02T06:31:19.161Z,95.4
2017-09-02T06:32:19.823Z,95.3
2017-09-02T06:33:20.481Z,95.6
2017-09-02T06:34:21.142Z,95.8
2017-09-02T06:35:22.052Z,95.3
2017-09-02T06:36:22.711Z,94.7
2017-09-02T06:37:23.371Z,94.7
2017-09-02T06:38:24.070Z,94.7
2017-09-02T06:39:24.762Z,94.0
2017-09-02T06:40:25.728Z,94.0
2017-09-02T06:41:26.390Z,95.1
2017-09-02T06:42:27.049Z,94.8
2017-09-02T06:43:27.708Z,94.9
2017-09-02T06:44:28.369Z,94.2
2017-09-02T06:45:29.287Z,94.2
2017-09-02T06:46:29.946Z,93.1
2017-09-02T06:47:30.605Z,92.9
2017-09-02T06:48:31.271Z,93.1
2017-09-02T06:49:31.925Z,93.5
2017-09-02T06:50:32.833Z,92.6
2017-09-02T06:51:33.495Z,91.9
2017-09-02T06:52:34.191Z,92.5
2017-09-02T06:53:34.891Z,92.0
2017-09-02T06:54:35.550Z,92.1
2017-09-02T06:55:36.462Z,91.6
2017-09-02T06:56:37.121Z,90.9
2017-09-02T06:57:37.780Z,91.1
2017-09-02T06:58:38.442Z,90.4
2017-09-02T06:59:39.104Z,90.6
2017-09-02T07:00:40.015Z,91.2
2017-09-02T07:01:40.676Z,90.3
2017-09-02T07:02:41.371Z,90.0
2017-09-02T07:03:42.035Z,90.3
2017-09-02T07:04:42.695Z,89.6
2017-09-02T07:05:43.655Z,89.6
2017-09-02T07:06:44.316Z,90.2
2017-09-02T07:07:44.979Z,89.0
2017-09-02T07:08:45.641Z,87.4
2017-09-02T07:09:46.302Z,88.6
2017-09-02T07:10:47.213Z,88.7
2017-09-02T07:11:47.875Z,88.3
2017-09-02T07:12:48.535Z,88.2
2017-09-02T07:13:49.195Z,87.9
2017-09-02T07:14:49.858Z,88.4
2017-09-02T07:15:50.770Z,87.8
2017-09-02T07:16:51.430Z,87.3
2017-09-02T07:17:52.094Z,88.0
2017-09-02T07:18:52.757Z,88.9
2017-09-02T07:19:53.417Z,87.8
2017-09-02T07:20:54.381Z,86.9
2017-09-02T07:21:55.079Z,87.4
2017-09-02T07:22:55.741Z,87.8
2017-09-02T07:23:56.404Z,87.9
2017-09-02T07:24:57.103Z,87.5
2017-09-02T07:25:58.048Z,86.1
2017-09-02T07:26:58.709Z,87.0
2017-09-02T07:27:59.404Z,85.3
2017-09-02T07:29:00.068Z,85.8
2017-09-02T07:30:00.730Z,85.0
2017-09-02T07:31:01.640Z,84.3
2017-09-02T07:32:02.312Z,84.7
2017-09-02T07:33:02.964Z,84.7
2017-09-02T07:34:03.625Z,84.6
2017-09-02T07:35:04.287Z,84.4
2017-09-02T07:36:05.199Z,84.0
2017-09-02T07:37:05.863Z,87.0
2017-09-02T07:38:06.528Z,88.5
2017-09-02T07:39:07.188Z,88.3
2017-09-02T07:40:07.850Z,87.8
2017-09-02T07:41:08.764Z,86.9
2017-09-02T07:42:09.424Z,84.1
2017-09-02T07:43:10.086Z,83.9
2017-09-02T07:44:10.749Z,82.4
2017-09-02T07:45:11.412Z,82.0
2017-09-02T07:46:12.412Z,82.8
2017-09-02T07:47:13.075Z,82.2
2017-09-02T07:48:13.737Z,80.6
2017-09-02T07:49:14.400Z,80.2
2017-09-02T07:50:15.061Z,74.9
2017-09-02T07:51:15.975Z,73.5
2017-09-02T07:52:16.640Z,74.2
2017-09-02T07:53:17.302Z,74.1
2017-09-02T07:54:17.963Z,74.9
2017-09-02T07:55:18.625Z,75.2
2017-09-02T07:56:19.537Z,74.7
2017-09-02T07:57:20.201Z,74.9
2017-09-02T07:58:20.866Z,75.3
2017-09-02T07:59:21.531Z,74.0
2017-09-02T08:00:22.193Z,75.0
2017-09-02T08:01:23.104Z,73.9
2017-09-02T08:02:23.767Z,73.3
2017-09-02T08:03:24.434Z,73.4
2017-09-02T08:04:25.092Z,72.7
2017-09-02T08:05:25.757Z,72.8
2017-09-02T08:06:26.721Z,73.3
2017-09-02T08:07:27.385Z,73.2
2017-09-02T08:08:28.084Z,73.6
2017-09-02T08:09:28.746Z,72.9
2017-09-02T08:10:29.443Z,73.4
2017-09-02T08:11:30.358Z,71.9
2017-09-02T08:12:31.021Z,71.9
2017-09-02T08:13:31.683Z,71.3
2017-09-02T08:14:32.347Z,71.2
2017-09-02T08:15:33.009Z,70.9
2017-09-02T08:16:33.972Z,71.4
2017-09-02T08:17:34.635Z,70.3
2017-09-02T08:18:35.300Z,69.4
2017-09-02T08:19:35.963Z,69.4
2017-09-02T08:20:36.625Z,69.7
2017-09-02T08:21:37.538Z,69.9
2017-09-02T08:22:38.202Z,71.6
2017-09-02T08:23:38.866Z,71.5
2017-09-02T08:24:39.526Z,68.5
2017-09-02T08:25:40.191Z,67.7
2017-09-02T08:26:41.105Z,67.8
2017-09-02T08:27:41.768Z,66.5
2017-09-02T08:28:42.431Z,67.6
2017-09-02T08:29:43.094Z,66.7
2017-09-02T08:30:43.761Z,66.8
2017-09-02T08:31:44.670Z,66.4
2017-09-02T08:32:45.337Z,65.3
2017-09-02T08:33:46.037Z,65.1
2017-09-02T08:34:46.700Z,64.8
2017-09-02T08:35:47.363Z,65.5
2017-09-02T08:36:48.313Z,67.7
2017-09-02T08:37:48.976Z,69.1
2017-09-02T08:38:49.639Z,69.5
2017-09-02T08:39:50.302Z,66.4
2017-09-02T08:40:50.966Z,67.0
2017-09-02T08:41:51.879Z,66.1
2017-09-02T08:42:52.545Z,62.4
2017-09-02T08:43:53.212Z,64.2
2017-09-02T08:44:53.872Z,62.8
2017-09-02T08:45:54.537Z,61.5
2017-09-02T08:46:55.452Z,60.2
2017-09-02T08:47:56.114Z,59.3
2017-09-02T08:48:56.786Z,59.6
2017-09-02T08:49:57.483Z,59.2
2017-09-02T08:50:58.147Z,58.6
2017-09-02T08:51:59.060Z,57.4
2017-09-02T08:52:59.723Z,58.1
2017-09-02T08:54:00.387Z,57.0
2017-09-02T08:55:01.054Z,56.9
2017-09-02T08:56:01.731Z,56.2
2017-09-02T08:57:02.670Z,55.5
2017-09-02T08:58:03.337Z,54.7
2017-09-02T08:59:04.002Z,54.0
2017-09-02T09:00:04.667Z,53.3
2017-09-02T09:01:05.333Z,50.4
2017-09-02T09:02:06.248Z,50.4
2017-09-02T09:03:06.919Z,51.4
2017-09-02T09:04:07.585Z,50.7
2017-09-02T09:05:08.252Z,50.4
2017-09-02T09:06:08.920Z,47.9
2017-09-02T09:07:09.888Z,46.5
2017-09-02T09:08:10.564Z,45.0
2017-09-02T09:09:11.260Z,44.7
2017-09-02T09:10:11.926Z,45.6
2017-09-02T09:11:12.597Z,46.7
2017-09-02T09:12:13.516Z,46.7
2017-09-02T09:13:14.185Z,46.1
2017-09-02T09:14:14.851Z,47.3
2017-09-02T09:15:15.520Z,46.5
2017-09-02T09:16:16.189Z,46.3
2017-09-02T09:17:17.159Z,46.6
2017-09-02T09:18:17.826Z,45.8
2017-09-02T09:19:18.494Z,45.1
2017-09-02T09:20:19.162Z,44.9
2017-09-02T09:21:19.840Z,44.5
2017-09-02T09:22:20.808Z,44.4
2017-09-02T09:23:21.476Z,44.5
2017-09-02T09:24:22.143Z,45.0
2017-09-02T09:25:22.813Z,43.2
2017-09-02T09:26:23.483Z,42.8
2017-09-02T09:27:24.403Z,41.8
2017-09-02T09:28:25.072Z,42.1
2017-09-02T09:29:25.740Z,42.4
2017-09-02T09:30:26.409Z,43.1
2017-09-02T09:31:27.076Z,42.0
2017-09-02T09:32:27.994Z,43.0
2017-09-02T09:33:28.698Z,43.6
2017-09-02T09:34:29.365Z,43.5
2017-09-02T09:35:30.067Z,44.1
2017-09-02T09:36:30.735Z,44.0
2017-09-02T09:37:31.655Z,44.5
2017-09-02T09:38:32.321Z,44.1
2017-09-02T09:39:32.989Z,44.6
2017-09-02T09:40:33.658Z,43.6
2017-09-02T09:41:34.322Z,44.0
2017-09-02T09:42:35.294Z,44.2
2017-09-02T09:43:35.958Z,43.7
2017-09-02T09:44:36.630Z,44.9
2017-09-02T09:45:37.293Z,43.6
2017-09-02T09:46:37.959Z,43.3
2017-09-02T09:47:38.926Z,43.1
2017-09-02T09:48:39.598Z,44.1
2017-09-02T09:49:40.259Z,44.3
2017-09-02T09:50:40.926Z,43.8
2017-09-02T09:51:41.593Z,44.7
2017-09-02T09:52:42.510Z,44.2
2017-09-02T09:53:43.176Z,44.5
2017-09-02T09:54:43.843Z,45.4
2017-09-02T09:55:44.508Z,47.0
2017-09-02T09:56:45.176Z,45.6
2017-09-02T09:57:46.095Z,46.5
2017-09-02T09:58:46.762Z,44.5
2017-09-02T09:59:47.429Z,44.0
2017-09-02T10:00:48.096Z,43.1
2017-09-02T10:01:48.765Z,43.9
2017-09-02T10:02:49.683Z,42.3
2017-09-02T10:03:50.353Z,40.9
2017-09-02T10:04:51.022Z,41.5
2017-09-02T10:05:51.692Z,40.4
2017-09-02T10:06:52.358Z,41.5
2017-09-02T10:07:53.276Z,41.7
2017-09-02T10:08:53.945Z,41.7
2017-09-02T10:09:54.614Z,40.8
2017-09-02T10:10:55.282Z,40.7
2017-09-02T10:11:55.952Z,38.8
2017-09-02T10:12:56.873Z,37.1
2017-09-02T10:13:57.541Z,38.2
2017-09-02T10:14:58.210Z,37.1
2017-09-02T10:15:58.918Z,38.3
2017-09-02T10:16:59.591Z,37.1
2017-09-02T10:18:00.510Z,35.4
2017-09-02T10:19:01.183Z,35.1
2017-09-02T10:20:01.854Z,32.1
2017-09-02T10:21:02.526Z,33.8
2017-09-02T10:22:03.199Z,34.3
2017-09-02T10:23:04.118Z,31.0
2017-09-02T10:24:04.787Z,32.4
2017-09-02T10:25:05.458Z,32.9
2017-09-02T10:26:06.131Z,33.0
2017-09-02T10:27:06.797Z,34.7
2017-09-02T10:28:07.717Z,32.1
2017-09-02T10:29:08.385Z,33.0
2017-09-02T10:30:09.051Z,31.9
2017-09-02T10:31:09.728Z,33.1
2017-09-02T10:32:10.398Z,32.4
2017-09-02T10:33:11.318Z,30.6
2017-09-02T10:34:11.987Z,28.0
2017-09-02T10:35:12.657Z,30.5
2017-09-02T10:36:13.328Z,30.0
2017-09-02T10:37:14.000Z,29.5
2017-09-02T10:38:14.969Z,29.1
2017-09-02T10:39:15.637Z,27.9
2017-09-02T10:40:16.307Z,25.2
2017-09-02T10:41:16.976Z,26.0
2017-09-02T10:42:17.647Z,24.7
2017-09-02T10:43:18.567Z,24.8
2017-09-02T10:44:19.239Z,25.5
2017-09-02T10:45:19.944Z,25.7
2017-09-02T10:46:20.614Z,23.5
2017-09-02T10:47:21.286Z,24.2
2017-09-02T10:48:22.208Z,22.8
2017-09-02T10:49:22.880Z,21.9
2017-09-02T10:50:23.553Z,24.4
2017-09-02T10:51:24.228Z,25.6
2017-09-02T10:52:24.903Z,26.5
2017-09-02T10:53:25.873Z,27.8
2017-09-02T10:54:26.546Z,28.3
2017-09-02T10:55:27.219Z,26.4
2017-09-02T10:56:27.891Z,25.8
2017-09-02T10:57:28.563Z,26.1
2017-09-02T10:58:29.485Z,25.0
2017-09-02T10:59:30.158Z,24.6
2017-09-02T11:00:30.827Z,22.0
2017-09-02T11:01:31.501Z,21.9
2017-09-02T11:02:32.171Z,24.8
2017-09-02T11:03:33.092Z,26.1
2017-09-02T11:04:33.764Z,25.1
2017-09-02T11:05:34.436Z,23.9
2017-09-02T11:06:35.117Z,23.6
2017-09-02T11:07:35.792Z,24.3
2017-09-02T11:08:36.713Z,21.9
2017-09-02T11:09:37.387Z,20.8
2017-09-02T11:10:38.064Z,21.1
2017-09-02T11:11:38.734Z,21.1
2017-09-02T11:12:39.405Z,21.9
2017-09-02T11:13:40.378Z,19.7
2017-09-02T11:14:41.049Z,22.0
2017-09-02T11:15:41.721Z,23.1
2017-09-02T11:16:42.390Z,21.9
2017-09-02T11:17:43.059Z,21.8
2017-09-02T11:18:44.033Z,21.0
2017-09-02T11:19:44.706Z,21.3
2017-09-02T11:20:45.378Z,23.0
2017-09-02T11:21:46.047Z,21.1
2017-09-02T11:22:46.717Z,20.8
2017-09-02T11:23:47.687Z,21.1
2017-09-02T11:24:48.359Z,21.0
2017-09-02T11:25:49.029Z,19.8
2017-09-02T11:26:49.701Z,20.1
2017-09-02T11:27:50.378Z,21.2
2017-09-02T11:28:51.298Z,20.0
2017-09-02T11:29:51.967Z,19.9
2017-09-02T11:30:52.638Z,20.1
2017-09-02T11:31:53.308Z,20.1
2017-09-02T11:32:53.978Z,20.8
2017-09-02T11:33:54.895Z,18.6
2017-09-02T11:34:55.568Z,17.9
2017-09-02T11:35:56.244Z,18.3
2017-09-02T11:36:56.910Z,17.6
2017-09-02T11:37:57.617Z,17.5
2017-09-02T11:38:58.593Z,16.8
2017-09-02T11:39:59.299Z,16.8
2017-09-02T11:40:59.972Z,17.7
2017-09-02T11:42:00.647Z,16.9
2017-09-02T11:43:01.356Z,14.8
2017-09-02T11:44:02.278Z,14.6
2017-09-02T11:45:02.954Z,12.7
2017-09-02T11:46:03.624Z,13.7
2017-09-02T11:47:04.296Z,12.8
2017-09-02T11:48:04.969Z,12.1
2017-09-02T11:49:05.892Z,13.1
2017-09-02T11:50:06.566Z,15.0
2017-09-02T11:51:07.240Z,15.0
2017-09-02T11:52:07.909Z,14.3
2017-09-02T11:53:08.580Z,17.2
2017-09-02T11:54:09.503Z,16.8
2017-09-02T11:55:10.193Z,16.8
2017-09-02T11:56:10.865Z,17.3
2017-09-02T11:57:11.539Z,16.6
2017-09-02T11:58:12.211Z,17.0
2017-09-02T11:59:13.131Z,19.9
2017-09-02T12:00:13.804Z,22.6
2017-09-02T12:01:14.480Z,24.8
2017-09-02T12:02:15.142Z,27.0
2017-09-02T12:03:15.809Z,29.1
2017-09-02T12:04:16.729Z,30.5
2017-09-02T12:05:17.399Z,31.9
2017-09-02T12:06:18.066Z,32.9
2017-09-02T12:07:18.732Z,33.3
2017-09-02T12:08:19.401Z,34.2
2017-09-02T12:09:20.349Z,34.9
2017-09-02T12:10:21.015Z,35.9
2017-09-02T12:11:21.681Z,36.4
2017-09-02T12:12:22.348Z,38.2
2017-09-02T12:13:23.013Z,38.8
2017-09-02T12:14:23.929Z,39.9
2017-09-02T12:15:24.595Z,41.7
2017-09-02T12:16:25.261Z,43.5
2017-09-02T12:17:25.925Z,44.7
2017-09-02T12:18:26.590Z,44.4
2017-09-02T12:19:27.542Z,43.7
2017-09-02T12:20:28.211Z,44.1
2017-09-02T12:21:28.872Z,44.8
2017-09-02T12:22:29.537Z,43.7
2017-09-02T12:23:30.204Z,44.6
2017-09-02T12:24:31.117Z,44.7
2017-09-02T12:25:31.782Z,45.5
2017-09-02T12:26:32.446Z,46.6
2017-09-02T12:27:33.111Z,47.3
2017-09-02T12:28:33.775Z,46.6
2017-09-02T12:29:34.687Z,46.5
2017-09-02T12:30:35.353Z,47.4
2017-09-02T12:31:36.017Z,46.9
2017-09-02T12:32:36.718Z,48.4
2017-09-02T12:33:37.380Z,49.2
2017-09-02T12:34:38.292Z,50.8
2017-09-02T12:35:38.954Z,50.1
2017-09-02T12:36:39.618Z,50.5
2017-09-02T12:37:40.281Z,50.9
2017-09-02T12:38:40.942Z,50.4
2017-09-02T12:39:41.855Z,51.1
2017-09-02T12:40:42.516Z,50.3
2017-09-02T12:41:43.180Z,50.2
2017-09-02T12:42:43.842Z,50.1
2017-09-02T12:43:44.503Z,49.0
2017-09-02T12:44:45.464Z,48.9
2017-09-02T12:45:46.126Z,50.1
2017-09-02T12:46:46.790Z,50.2
2017-09-02T12:47:47.452Z,51.3
2017-09-02T12:48:48.113Z,53.4
2017-09-02T12:49:49.026Z,54.3
2017-09-02T12:50:49.687Z,55.3
2017-09-02T12:51:50.350Z,56.1
2017-09-02T12:52:51.010Z,56.2
2017-09-02T12:53:51.671Z,56.5
2017-09-02T12:54:52.633Z,56.5
2017-09-02T12:55:53.294Z,56.8
2017-09-02T12:56:53.957Z,57.7
2017-09-02T12:57:54.620Z,58.1
2017-09-02T12:58:55.280Z,58.0
2017-09-02T12:59:56.190Z,58.6
2017-09-02T13:00:56.851Z,59.1
2017-09-02T13:01:57.513Z,59.5
2017-09-02T13:02:58.174Z,60.2
2017-09-02T13:03:58.834Z,60.3
2017-09-02T13:04:59.746Z,60.9
2017-09-02T13:06:00.406Z,60.1
2017-09-02T13:07:01.070Z,59.3
2017-09-02T13:08:01.729Z,57.9
2017-09-02T13:09:02.391Z,57.3
2017-09-02T13:10:03.304Z,56.7
2017-09-02T13:11:03.967Z,57.2
2017-09-02T13:12:04.662Z,57.9
2017-09-02T13:13:05.324Z,57.3
2017-09-02T13:14:05.986Z,55.9
2017-09-02T13:15:06.949Z,55.7
2017-09-02T13:16:07.611Z,55.3
2017-09-02T13:17:08.273Z,51.6